sensor_id;sensor_type;location;lat;lon;timestamp;temperature;humidity
45643;DHT22;31358;46.008;11.144;2023-06-22T00:02:16;23.90;99.90
45643;DHT22;31358;46.008;11.144;2023-06-22T00:04:42;23.90;99.90
45643;DHT22;31358;46.008;11.144;2023-06-22T00:07:07;23.80;99.90
45643;DHT22;31358;46.008;11.144;2023-06-22T00:09:34;23.60;99.90
45643;DHT22;31358;46.008;11.144;2023-06-22T00:11:59;23.60;99.90
45643;DHT22;31358;46.008;11.144;2023-06-22T00:14:25;23.70;99.90
45643;DHT22;31358;46.008;11.144;2023-06-22T00:16:51;23.80;99.90
45643;DHT22;31358;46.008;11.144;2023-06-22T00:19:24;23.70;99.90
45643;DHT22;31358;46.008;11.144;2023-06-22T00:21:50;23.50;99.90
45643;DHT22;31358;46.008;11.144;2023-06-22T00:24:20;23.50;99.90
45643;DHT22;31358;46.008;11.144;2023-06-22T00:26:45;23.50;99.90
45643;DHT22;31358;46.008;11.144;2023-06-22T00:29:12;23.60;99.90
45643;DHT22;31358;46.008;11.144;2023-06-22T00:31:38;23.60;99.90
45643;DHT22;31358;46.008;11.144;2023-06-22T00:34:03;23.60;99.90
45643;DHT22;31358;46.008;11.144;2023-06-22T00:36:29;23.60;99.90
45643;DHT22;31358;46.008;11.144;2023-06-22T00:38:55;23.40;99.90
45643;DHT22;31358;46.008;11.144;2023-06-22T00:41:20;23.40;99.90
45643;DHT22;31358;46.008;11.144;2023-06-22T00:43:46;23.30;99.90
45643;DHT22;31358;46.008;11.144;2023-06-22T00:46:11;23.20;99.90
45643;DHT22;31358;46.008;11.144;2023-06-22T00:48:38;23.20;99.90
45643;DHT22;31358;46.008;11.144;2023-06-22T00:51:05;22.90;99.90
45643;DHT22;31358;46.008;11.144;2023-06-22T00:53:31;23.00;99.90
45643;DHT22;31358;46.008;11.144;2023-06-22T00:56:00;23.10;99.90
45643;DHT22;31358;46.008;11.144;2023-06-22T00:58:26;23.20;99.90
45643;DHT22;31358;46.008;11.144;2023-06-22T01:00:52;23.30;99.90
45643;DHT22;31358;46.008;11.144;2023-06-22T01:03:17;23.30;99.90
45643;DHT22;31358;46.008;11.144;2023-06-22T01:05:44;23.30;99.90
45643;DHT22;31358;46.008;11.144;2023-06-22T01:11:24;23.50;99.90
45643;DHT22;31358;46.008;11.144;2023-06-22T01:14:15;23.40;99.90
45643;DHT22;31358;46.008;11.144;2023-06-22T01:16:44;23.40;99.90
45643;DHT22;31358;46.008;11.144;2023-06-22T01:21:46;23.40;99.90
45643;DHT22;31358;46.008;11.144;2023-06-22T01:24:52;23.40;99.90
45643;DHT22;31358;46.008;11.144;2023-06-22T01:30:14;23.50;99.90
45643;DHT22;31358;46.008;11.144;2023-06-22T01:32:41;23.40;99.90
45643;DHT22;31358;46.008;11.144;2023-06-22T01:35:08;23.40;99.90
45643;DHT22;31358;46.008;11.144;2023-06-22T01:37:36;23.40;99.90
45643;DHT22;31358;46.008;11.144;2023-06-22T01:40:04;23.20;99.90
45643;DHT22;31358;46.008;11.144;2023-06-22T01:42:31;23.00;99.90
45643;DHT22;31358;46.008;11.144;2023-06-22T01:44:58;23.00;99.90
45643;DHT22;31358;46.008;11.144;2023-06-22T01:47:25;22.90;99.90
45643;DHT22;31358;46.008;11.144;2023-06-22T01:49:51;22.90;99.90
45643;DHT22;31358;46.008;11.144;2023-06-22T01:52:20;22.80;99.90
45643;DHT22;31358;46.008;11.144;2023-06-22T01:54:48;22.70;99.90
45643;DHT22;31358;46.008;11.144;2023-06-22T01:57:14;22.70;99.90
45643;DHT22;31358;46.008;11.144;2023-06-22T02:02:19;22.80;99.90
45643;DHT22;31358;46.008;11.144;2023-06-22T02:04:55;22.90;99.90
45643;DHT22;31358;46.008;11.144;2023-06-22T02:07:23;22.90;99.90
45643;DHT22;31358;46.008;11.144;2023-06-22T02:09:52;22.80;99.90
45643;DHT22;31358;46.008;11.144;2023-06-22T02:12:23;22.90;99.90
45643;DHT22;31358;46.008;11.144;2023-06-22T02:14:51;23.00;99.90
45643;DHT22;31358;46.008;11.144;2023-06-22T02:17:18;23.00;99.90
45643;DHT22;31358;46.008;11.144;2023-06-22T02:19:43;23.00;99.90
45643;DHT22;31358;46.008;11.144;2023-06-22T02:22:09;23.00;99.90
45643;DHT22;31358;46.008;11.144;2023-06-22T02:24:35;22.90;99.90
45643;DHT22;31358;46.008;11.144;2023-06-22T02:27:01;22.70;99.90
45643;DHT22;31358;46.008;11.144;2023-06-22T02:29:28;22.80;99.90
45643;DHT22;31358;46.008;11.144;2023-06-22T02:31:54;23.00;99.90
45643;DHT22;31358;46.008;11.144;2023-06-22T02:34:21;22.90;99.90
45643;DHT22;31358;46.008;11.144;2023-06-22T02:36:48;22.80;99.90
45643;DHT22;31358;46.008;11.144;2023-06-22T02:39:21;22.80;99.90
45643;DHT22;31358;46.008;11.144;2023-06-22T02:41:51;22.90;99.90
45643;DHT22;31358;46.008;11.144;2023-06-22T02:44:17;22.80;99.90
45643;DHT22;31358;46.008;11.144;2023-06-22T02:46:44;22.80;99.90
45643;DHT22;31358;46.008;11.144;2023-06-22T02:49:10;22.70;99.90
45643;DHT22;31358;46.008;11.144;2023-06-22T02:51:38;22.70;99.90
45643;DHT22;31358;46.008;11.144;2023-06-22T02:54:05;22.70;99.90
45643;DHT22;31358;46.008;11.144;2023-06-22T02:56:31;22.60;99.90
45643;DHT22;31358;46.008;11.144;2023-06-22T02:58:57;22.50;99.90
45643;DHT22;31358;46.008;11.144;2023-06-22T03:01:29;22.70;99.90
45643;DHT22;31358;46.008;11.144;2023-06-22T03:04:08;22.70;99.90
45643;DHT22;31358;46.008;11.144;2023-06-22T03:06:34;22.50;99.90
45643;DHT22;31358;46.008;11.144;2023-06-22T03:09:04;22.50;99.90
45643;DHT22;31358;46.008;11.144;2023-06-22T03:11:31;22.40;99.90
45643;DHT22;31358;46.008;11.144;2023-06-22T03:13:57;22.40;99.90
45643;DHT22;31358;46.008;11.144;2023-06-22T03:16:23;22.30;99.90
45643;DHT22;31358;46.008;11.144;2023-06-22T03:18:48;22.40;99.90
45643;DHT22;31358;46.008;11.144;2023-06-22T03:21:14;22.40;99.90
45643;DHT22;31358;46.008;11.144;2023-06-22T03:23:41;22.50;99.90
45643;DHT22;31358;46.008;11.144;2023-06-22T03:26:08;22.50;99.90
45643;DHT22;31358;46.008;11.144;2023-06-22T03:28:33;22.60;99.90
45643;DHT22;31358;46.008;11.144;2023-06-22T03:30:59;22.60;99.90
45643;DHT22;31358;46.008;11.144;2023-06-22T03:33:25;22.40;99.90
45643;DHT22;31358;46.008;11.144;2023-06-22T03:35:51;22.10;99.90
45643;DHT22;31358;46.008;11.144;2023-06-22T03:38:17;22.10;99.90
45643;DHT22;31358;46.008;11.144;2023-06-22T03:40:43;22.20;99.90
45643;DHT22;31358;46.008;11.144;2023-06-22T03:43:09;22.30;99.90
45643;DHT22;31358;46.008;11.144;2023-06-22T03:45:34;22.10;99.90
45643;DHT22;31358;46.008;11.144;2023-06-22T03:48:01;21.90;99.90
45643;DHT22;31358;46.008;11.144;2023-06-22T03:50:27;21.90;99.90
45643;DHT22;31358;46.008;11.144;2023-06-22T03:52:52;22.00;99.90
45643;DHT22;31358;46.008;11.144;2023-06-22T03:55:20;22.10;99.90
45643;DHT22;31358;46.008;11.144;2023-06-22T03:57:45;22.30;99.90
45643;DHT22;31358;46.008;11.144;2023-06-22T04:00:12;22.30;99.90
45643;DHT22;31358;46.008;11.144;2023-06-22T04:02:38;22.40;99.90
45643;DHT22;31358;46.008;11.144;2023-06-22T04:05:04;22.60;99.90
45643;DHT22;31358;46.008;11.144;2023-06-22T04:07:29;22.60;99.90
45643;DHT22;31358;46.008;11.144;2023-06-22T04:09:55;22.60;99.90
45643;DHT22;31358;46.008;11.144;2023-06-22T04:12:21;22.60;99.90
45643;DHT22;31358;46.008;11.144;2023-06-22T04:14:46;22.70;99.90
45643;DHT22;31358;46.008;11.144;2023-06-22T04:17:12;22.60;99.90
45643;DHT22;31358;46.008;11.144;2023-06-22T04:19:40;22.40;99.90
45643;DHT22;31358;46.008;11.144;2023-06-22T04:22:05;22.40;99.90
45643;DHT22;31358;46.008;11.144;2023-06-22T04:24:33;22.50;99.90
45643;DHT22;31358;46.008;11.144;2023-06-22T04:26:59;22.50;99.90
45643;DHT22;31358;46.008;11.144;2023-06-22T04:29:28;22.40;99.90
45643;DHT22;31358;46.008;11.144;2023-06-22T04:31:56;22.50;99.90
45643;DHT22;31358;46.008;11.144;2023-06-22T04:34:24;22.60;99.90
45643;DHT22;31358;46.008;11.144;2023-06-22T04:36:52;22.70;99.90
45643;DHT22;31358;46.008;11.144;2023-06-22T04:39:17;22.50;99.90
45643;DHT22;31358;46.008;11.144;2023-06-22T04:41:44;22.40;99.90
45643;DHT22;31358;46.008;11.144;2023-06-22T04:44:15;22.40;99.90
45643;DHT22;31358;46.008;11.144;2023-06-22T04:46:54;22.50;99.90
45643;DHT22;31358;46.008;11.144;2023-06-22T04:49:27;22.60;99.90
45643;DHT22;31358;46.008;11.144;2023-06-22T04:52:01;22.70;99.90
45643;DHT22;31358;46.008;11.144;2023-06-22T04:54:27;22.70;99.90
45643;DHT22;31358;46.008;11.144;2023-06-22T04:56:53;22.80;99.90
45643;DHT22;31358;46.008;11.144;2023-06-22T04:59:28;22.90;99.90
45643;DHT22;31358;46.008;11.144;2023-06-22T05:01:59;22.90;99.90
45643;DHT22;31358;46.008;11.144;2023-06-22T05:04:27;23.00;99.90
45643;DHT22;31358;46.008;11.144;2023-06-22T05:06:54;23.00;99.90
45643;DHT22;31358;46.008;11.144;2023-06-22T05:09:20;23.00;99.90
45643;DHT22;31358;46.008;11.144;2023-06-22T05:11:46;23.00;99.90
45643;DHT22;31358;46.008;11.144;2023-06-22T05:14:12;23.20;99.90
45643;DHT22;31358;46.008;11.144;2023-06-22T05:16:38;23.20;99.90
45643;DHT22;31358;46.008;11.144;2023-06-22T05:19:04;23.20;99.90
45643;DHT22;31358;46.008;11.144;2023-06-22T05:21:31;23.20;99.90
45643;DHT22;31358;46.008;11.144;2023-06-22T05:23:57;23.30;99.90
45643;DHT22;31358;46.008;11.144;2023-06-22T05:26:26;23.40;99.90
45643;DHT22;31358;46.008;11.144;2023-06-22T05:28:52;23.50;99.90
45643;DHT22;31358;46.008;11.144;2023-06-22T05:31:19;23.50;99.90
45643;DHT22;31358;46.008;11.144;2023-06-22T05:33:50;23.50;99.90
45643;DHT22;31358;46.008;11.144;2023-06-22T05:36:16;23.60;99.90
45643;DHT22;31358;46.008;11.144;2023-06-22T05:38:42;23.60;99.90
45643;DHT22;31358;46.008;11.144;2023-06-22T05:41:08;23.50;99.90
45643;DHT22;31358;46.008;11.144;2023-06-22T05:43:34;23.60;99.90
45643;DHT22;31358;46.008;11.144;2023-06-22T05:46:01;23.70;99.90
45643;DHT22;31358;46.008;11.144;2023-06-22T05:48:27;23.90;99.90
45643;DHT22;31358;46.008;11.144;2023-06-22T05:50:53;24.00;99.90
45643;DHT22;31358;46.008;11.144;2023-06-22T05:53:19;23.80;99.90
45643;DHT22;31358;46.008;11.144;2023-06-22T05:55:45;23.60;99.90
45643;DHT22;31358;46.008;11.144;2023-06-22T05:58:11;23.60;99.90
45643;DHT22;31358;46.008;11.144;2023-06-22T06:00:39;23.70;99.90
45643;DHT22;31358;46.008;11.144;2023-06-22T06:03:06;23.80;99.90
45643;DHT22;31358;46.008;11.144;2023-06-22T06:05:33;23.90;99.90
45643;DHT22;31358;46.008;11.144;2023-06-22T06:08:04;23.90;99.90
45643;DHT22;31358;46.008;11.144;2023-06-22T06:10:31;23.70;99.90
45643;DHT22;31358;46.008;11.144;2023-06-22T06:12:57;23.80;99.90
45643;DHT22;31358;46.008;11.144;2023-06-22T06:15:23;24.00;99.90
45643;DHT22;31358;46.008;11.144;2023-06-22T06:17:52;24.10;99.90
45643;DHT22;31358;46.008;11.144;2023-06-22T06:20:21;24.00;99.90
45643;DHT22;31358;46.008;11.144;2023-06-22T06:22:48;24.30;99.90
45643;DHT22;31358;46.008;11.144;2023-06-22T06:25:14;24.40;99.90
45643;DHT22;31358;46.008;11.144;2023-06-22T06:27:46;24.20;99.90
45643;DHT22;31358;46.008;11.144;2023-06-22T06:30:13;24.10;99.90
45643;DHT22;31358;46.008;11.144;2023-06-22T06:32:40;23.90;99.90
45643;DHT22;31358;46.008;11.144;2023-06-22T06:35:07;24.20;99.90
45643;DHT22;31358;46.008;11.144;2023-06-22T06:37:35;24.40;99.90
45643;DHT22;31358;46.008;11.144;2023-06-22T06:40:03;24.40;99.90
45643;DHT22;31358;46.008;11.144;2023-06-22T06:42:30;24.40;99.90
45643;DHT22;31358;46.008;11.144;2023-06-22T06:44:56;24.40;99.90
45643;DHT22;31358;46.008;11.144;2023-06-22T06:47:22;24.10;99.90
45643;DHT22;31358;46.008;11.144;2023-06-22T06:49:48;24.30;99.90
45643;DHT22;31358;46.008;11.144;2023-06-22T06:52:13;24.30;99.90
45643;DHT22;31358;46.008;11.144;2023-06-22T06:54:39;24.30;99.90
45643;DHT22;31358;46.008;11.144;2023-06-22T06:57:05;24.40;99.90
45643;DHT22;31358;46.008;11.144;2023-06-22T06:59:30;24.40;99.90
45643;DHT22;31358;46.008;11.144;2023-06-22T07:01:56;24.50;99.90
45643;DHT22;31358;46.008;11.144;2023-06-22T07:04:22;24.60;99.90
45643;DHT22;31358;46.008;11.144;2023-06-22T07:06:47;24.70;99.90
45643;DHT22;31358;46.008;11.144;2023-06-22T07:09:13;24.90;99.90
45643;DHT22;31358;46.008;11.144;2023-06-22T07:11:39;25.00;99.90
45643;DHT22;31358;46.008;11.144;2023-06-22T07:14:04;25.00;99.90
45643;DHT22;31358;46.008;11.144;2023-06-22T07:16:30;25.10;99.90
45643;DHT22;31358;46.008;11.144;2023-06-22T07:18:57;25.20;99.90
45643;DHT22;31358;46.008;11.144;2023-06-22T07:21:22;25.20;99.90
45643;DHT22;31358;46.008;11.144;2023-06-22T07:23:48;25.30;99.90
45643;DHT22;31358;46.008;11.144;2023-06-22T07:26:14;25.30;99.90
45643;DHT22;31358;46.008;11.144;2023-06-22T07:28:40;25.50;99.90
45643;DHT22;31358;46.008;11.144;2023-06-22T07:31:06;25.70;99.90
45643;DHT22;31358;46.008;11.144;2023-06-22T07:33:32;26.10;99.90
45643;DHT22;31358;46.008;11.144;2023-06-22T07:35:58;26.40;99.90
45643;DHT22;31358;46.008;11.144;2023-06-22T07:38:23;26.60;99.90
45643;DHT22;31358;46.008;11.144;2023-06-22T07:40:49;26.70;99.90
45643;DHT22;31358;46.008;11.144;2023-06-22T07:43:16;26.60;99.90
45643;DHT22;31358;46.008;11.144;2023-06-22T07:45:50;26.70;99.90
45643;DHT22;31358;46.008;11.144;2023-06-22T07:48:21;26.50;99.90
45643;DHT22;31358;46.008;11.144;2023-06-22T07:50:47;26.40;99.90
45643;DHT22;31358;46.008;11.144;2023-06-22T07:53:13;26.40;99.90
45643;DHT22;31358;46.008;11.144;2023-06-22T07:55:39;26.50;99.90
45643;DHT22;31358;46.008;11.144;2023-06-22T07:58:04;26.50;99.90
45643;DHT22;31358;46.008;11.144;2023-06-22T08:00:30;26.30;99.70
45643;DHT22;31358;46.008;11.144;2023-06-22T08:02:55;26.50;99.80
45643;DHT22;31358;46.008;11.144;2023-06-22T08:05:21;26.60;99.80
45643;DHT22;31358;46.008;11.144;2023-06-22T08:07:47;26.50;99.60
45643;DHT22;31358;46.008;11.144;2023-06-22T08:10:13;26.40;99.50
45643;DHT22;31358;46.008;11.144;2023-06-22T08:12:40;26.40;99.20
45643;DHT22;31358;46.008;11.144;2023-06-22T08:15:06;26.60;98.90
45643;DHT22;31358;46.008;11.144;2023-06-22T08:17:33;26.70;99.60
45643;DHT22;31358;46.008;11.144;2023-06-22T08:19:58;26.90;98.80
45643;DHT22;31358;46.008;11.144;2023-06-22T08:22:24;27.10;99.00
45643;DHT22;31358;46.008;11.144;2023-06-22T08:24:50;27.10;98.00
45643;DHT22;31358;46.008;11.144;2023-06-22T08:27:16;26.80;98.70
45643;DHT22;31358;46.008;11.144;2023-06-22T08:29:43;27.10;99.20
45643;DHT22;31358;46.008;11.144;2023-06-22T08:32:11;27.00;98.00
45643;DHT22;31358;46.008;11.144;2023-06-22T08:34:37;27.30;98.50
45643;DHT22;31358;46.008;11.144;2023-06-22T08:37:10;27.60;98.10
45643;DHT22;31358;46.008;11.144;2023-06-22T08:39:36;27.70;98.70
45643;DHT22;31358;46.008;11.144;2023-06-22T08:42:02;27.90;98.30
45643;DHT22;31358;46.008;11.144;2023-06-22T08:44:27;28.20;97.50
45643;DHT22;31358;46.008;11.144;2023-06-22T08:46:53;27.90;97.50
45643;DHT22;31358;46.008;11.144;2023-06-22T08:49:19;28.00;98.10
45643;DHT22;31358;46.008;11.144;2023-06-22T08:51:44;28.20;97.90
45643;DHT22;31358;46.008;11.144;2023-06-22T08:54:11;28.20;97.90
45643;DHT22;31358;46.008;11.144;2023-06-22T08:56:36;28.40;97.00
45643;DHT22;31358;46.008;11.144;2023-06-22T08:59:02;28.70;97.50
45643;DHT22;31358;46.008;11.144;2023-06-22T09:01:29;28.80;97.30
45643;DHT22;31358;46.008;11.144;2023-06-22T09:03:55;29.00;97.40
45643;DHT22;31358;46.008;11.144;2023-06-22T09:06:23;29.20;96.70
45643;DHT22;31358;46.008;11.144;2023-06-22T09:08:49;29.20;96.20
45643;DHT22;31358;46.008;11.144;2023-06-22T09:11:15;28.90;96.70
45643;DHT22;31358;46.008;11.144;2023-06-22T09:13:41;28.80;97.20
45643;DHT22;31358;46.008;11.144;2023-06-22T09:16:07;28.90;96.50
45643;DHT22;31358;46.008;11.144;2023-06-22T09:18:34;29.20;96.10
45643;DHT22;31358;46.008;11.144;2023-06-22T09:20:59;29.10;96.00
45643;DHT22;31358;46.008;11.144;2023-06-22T09:23:25;29.30;96.50
45643;DHT22;31358;46.008;11.144;2023-06-22T09:25:51;29.10;96.10
45643;DHT22;31358;46.008;11.144;2023-06-22T09:28:17;29.60;96.40
45643;DHT22;31358;46.008;11.144;2023-06-22T09:30:45;30.10;96.20
45643;DHT22;31358;46.008;11.144;2023-06-22T09:33:11;29.60;95.60
45643;DHT22;31358;46.008;11.144;2023-06-22T09:35:37;29.40;95.40
45643;DHT22;31358;46.008;11.144;2023-06-22T09:38:02;29.70;95.10
45643;DHT22;31358;46.008;11.144;2023-06-22T09:40:28;30.10;95.00
45643;DHT22;31358;46.008;11.144;2023-06-22T09:42:54;30.00;95.40
45643;DHT22;31358;46.008;11.144;2023-06-22T09:45:19;30.30;95.30
45643;DHT22;31358;46.008;11.144;2023-06-22T09:47:45;30.30;95.40
45643;DHT22;31358;46.008;11.144;2023-06-22T09:50:11;29.80;95.00
45643;DHT22;31358;46.008;11.144;2023-06-22T09:52:36;29.90;95.80
45643;DHT22;31358;46.008;11.144;2023-06-22T09:55:03;30.00;95.40
45643;DHT22;31358;46.008;11.144;2023-06-22T09:57:29;30.30;95.50
45643;DHT22;31358;46.008;11.144;2023-06-22T09:59:55;30.40;95.40
45643;DHT22;31358;46.008;11.144;2023-06-22T10:02:21;30.00;94.70
45643;DHT22;31358;46.008;11.144;2023-06-22T10:04:48;30.30;95.80
45643;DHT22;31358;46.008;11.144;2023-06-22T10:07:13;30.60;94.20
45643;DHT22;31358;46.008;11.144;2023-06-22T10:09:39;30.00;94.70
45643;DHT22;31358;46.008;11.144;2023-06-22T10:12:05;30.20;95.80
45643;DHT22;31358;46.008;11.144;2023-06-22T10:14:31;30.30;95.50
45643;DHT22;31358;46.008;11.144;2023-06-22T10:16:57;29.70;94.80
45643;DHT22;31358;46.008;11.144;2023-06-22T10:19:22;29.70;95.30
45643;DHT22;31358;46.008;11.144;2023-06-22T10:21:48;29.90;95.20
45643;DHT22;31358;46.008;11.144;2023-06-22T10:24:14;30.40;95.40
45643;DHT22;31358;46.008;11.144;2023-06-22T10:26:39;30.80;95.50
45643;DHT22;31358;46.008;11.144;2023-06-22T10:29:05;30.70;95.60
45643;DHT22;31358;46.008;11.144;2023-06-22T10:31:31;30.50;94.70
45643;DHT22;31358;46.008;11.144;2023-06-22T10:33:57;30.50;95.00
45643;DHT22;31358;46.008;11.144;2023-06-22T10:36:23;30.50;94.60
45643;DHT22;31358;46.008;11.144;2023-06-22T10:38:49;30.60;94.60
45643;DHT22;31358;46.008;11.144;2023-06-22T10:41:15;30.50;94.20
45643;DHT22;31358;46.008;11.144;2023-06-22T10:43:41;30.60;94.50
45643;DHT22;31358;46.008;11.144;2023-06-22T10:46:07;30.90;94.80
45643;DHT22;31358;46.008;11.144;2023-06-22T10:48:33;31.10;94.90
45643;DHT22;31358;46.008;11.144;2023-06-22T10:50:59;31.30;94.80
45643;DHT22;31358;46.008;11.144;2023-06-22T10:53:24;31.40;94.50
45643;DHT22;31358;46.008;11.144;2023-06-22T10:55:50;31.00;94.10
45643;DHT22;31358;46.008;11.144;2023-06-22T10:58:18;31.20;95.60
45643;DHT22;31358;46.008;11.144;2023-06-22T11:00:44;31.50;94.80
45643;DHT22;31358;46.008;11.144;2023-06-22T11:03:10;31.30;94.20
45643;DHT22;31358;46.008;11.144;2023-06-22T11:05:36;31.60;94.40
45643;DHT22;31358;46.008;11.144;2023-06-22T11:08:02;31.30;93.80
45643;DHT22;31358;46.008;11.144;2023-06-22T11:10:27;31.10;94.10
45643;DHT22;31358;46.008;11.144;2023-06-22T11:12:53;31.40;95.10
45643;DHT22;31358;46.008;11.144;2023-06-22T11:15:19;31.60;95.10
45643;DHT22;31358;46.008;11.144;2023-06-22T11:17:45;31.70;94.90
45643;DHT22;31358;46.008;11.144;2023-06-22T11:20:11;32.00;95.00
45643;DHT22;31358;46.008;11.144;2023-06-22T11:22:40;32.00;94.10
45643;DHT22;31358;46.008;11.144;2023-06-22T11:25:07;31.80;93.60
45643;DHT22;31358;46.008;11.144;2023-06-22T11:27:33;31.50;93.70
45643;DHT22;31358;46.008;11.144;2023-06-22T11:29:58;31.70;94.90
45643;DHT22;31358;46.008;11.144;2023-06-22T11:32:24;31.80;94.00
45643;DHT22;31358;46.008;11.144;2023-06-22T11:34:50;31.80;94.20
45643;DHT22;31358;46.008;11.144;2023-06-22T11:37:16;31.80;93.90
45643;DHT22;31358;46.008;11.144;2023-06-22T11:39:42;32.00;94.60
45643;DHT22;31358;46.008;11.144;2023-06-22T11:42:11;32.20;94.40
45643;DHT22;31358;46.008;11.144;2023-06-22T11:44:37;32.10;93.50
45643;DHT22;31358;46.008;11.144;2023-06-22T11:47:03;31.80;94.00
45643;DHT22;31358;46.008;11.144;2023-06-22T11:49:30;31.80;93.70
45643;DHT22;31358;46.008;11.144;2023-06-22T11:51:56;31.80;94.40
45643;DHT22;31358;46.008;11.144;2023-06-22T11:54:21;32.30;94.10
45643;DHT22;31358;46.008;11.144;2023-06-22T11:56:47;32.50;94.40
45643;DHT22;31358;46.008;11.144;2023-06-22T11:59:13;32.30;93.80
45643;DHT22;31358;46.008;11.144;2023-06-22T12:01:39;32.40;94.60
45643;DHT22;31358;46.008;11.144;2023-06-22T12:04:04;32.70;94.60
45643;DHT22;31358;46.008;11.144;2023-06-22T12:06:37;32.50;94.20
45643;DHT22;31358;46.008;11.144;2023-06-22T12:09:03;32.70;94.10
45643;DHT22;31358;46.008;11.144;2023-06-22T12:11:30;33.00;94.40
45643;DHT22;31358;46.008;11.144;2023-06-22T12:13:56;33.00;93.90
45643;DHT22;31358;46.008;11.144;2023-06-22T12:16:21;32.80;93.90
45643;DHT22;31358;46.008;11.144;2023-06-22T12:18:48;32.70;94.60
45643;DHT22;31358;46.008;11.144;2023-06-22T12:21:14;33.10;94.40
45643;DHT22;31358;46.008;11.144;2023-06-22T12:23:39;33.50;94.30
45643;DHT22;31358;46.008;11.144;2023-06-22T12:26:05;33.10;93.90
45643;DHT22;31358;46.008;11.144;2023-06-22T12:28:31;32.80;94.00
45643;DHT22;31358;46.008;11.144;2023-06-22T12:30:57;32.90;93.80
45643;DHT22;31358;46.008;11.144;2023-06-22T12:33:22;33.50;93.40
45643;DHT22;31358;46.008;11.144;2023-06-22T12:35:48;33.50;92.60
45643;DHT22;31358;46.008;11.144;2023-06-22T12:38:14;33.60;92.40
45643;DHT22;31358;46.008;11.144;2023-06-22T12:40:40;33.60;91.20
45643;DHT22;31358;46.008;11.144;2023-06-22T12:43:06;33.60;91.00
45643;DHT22;31358;46.008;11.144;2023-06-22T12:45:33;34.00;90.90
45643;DHT22;31358;46.008;11.144;2023-06-22T12:48:00;33.70;89.80
45643;DHT22;31358;46.008;11.144;2023-06-22T12:50:26;34.10;90.20
45643;DHT22;31358;46.008;11.144;2023-06-22T12:52:51;34.40;90.10
45643;DHT22;31358;46.008;11.144;2023-06-22T12:55:17;34.70;87.40
45643;DHT22;31358;46.008;11.144;2023-06-22T12:57:43;34.70;88.00
45643;DHT22;31358;46.008;11.144;2023-06-22T13:00:09;34.60;87.70
45643;DHT22;31358;46.008;11.144;2023-06-22T13:02:36;34.60;87.90
45643;DHT22;31358;46.008;11.144;2023-06-22T13:05:02;34.80;87.30
45643;DHT22;31358;46.008;11.144;2023-06-22T13:07:30;34.80;88.80
45643;DHT22;31358;46.008;11.144;2023-06-22T13:09:56;34.70;86.10
45643;DHT22;31358;46.008;11.144;2023-06-22T13:12:22;35.10;86.80
45643;DHT22;31358;46.008;11.144;2023-06-22T13:14:48;34.90;86.80
45643;DHT22;31358;46.008;11.144;2023-06-22T13:17:14;34.80;88.10
45643;DHT22;31358;46.008;11.144;2023-06-22T13:19:40;34.70;87.80
45643;DHT22;31358;46.008;11.144;2023-06-22T13:22:09;34.60;86.40
45643;DHT22;31358;46.008;11.144;2023-06-22T13:24:50;34.60;87.20
45643;DHT22;31358;46.008;11.144;2023-06-22T13:27:16;34.60;86.10
45643;DHT22;31358;46.008;11.144;2023-06-22T13:29:42;34.60;87.80
45643;DHT22;31358;46.008;11.144;2023-06-22T13:32:08;34.60;87.10
45643;DHT22;31358;46.008;11.144;2023-06-22T13:34:33;34.60;87.00
45643;DHT22;31358;46.008;11.144;2023-06-22T13:36:59;34.80;87.10
45643;DHT22;31358;46.008;11.144;2023-06-22T13:39:24;34.50;87.80
45643;DHT22;31358;46.008;11.144;2023-06-22T13:41:50;34.70;87.50
45643;DHT22;31358;46.008;11.144;2023-06-22T13:44:16;35.10;87.20
45643;DHT22;31358;46.008;11.144;2023-06-22T13:46:42;35.20;86.80
45643;DHT22;31358;46.008;11.144;2023-06-22T13:49:07;35.20;86.50
45643;DHT22;31358;46.008;11.144;2023-06-22T13:51:33;35.10;86.80
45643;DHT22;31358;46.008;11.144;2023-06-22T13:53:59;34.90;86.90
45643;DHT22;31358;46.008;11.144;2023-06-22T13:56:24;34.80;87.60
45643;DHT22;31358;46.008;11.144;2023-06-22T13:58:50;34.80;87.10
45643;DHT22;31358;46.008;11.144;2023-06-22T14:01:16;34.70;88.10
45643;DHT22;31358;46.008;11.144;2023-06-22T14:03:41;35.00;89.50
45643;DHT22;31358;46.008;11.144;2023-06-22T14:06:07;35.20;89.10
45643;DHT22;31358;46.008;11.144;2023-06-22T14:08:37;35.30;88.50
45643;DHT22;31358;46.008;11.144;2023-06-22T14:11:02;35.10;90.30
45643;DHT22;31358;46.008;11.144;2023-06-22T14:13:28;35.20;89.80
45643;DHT22;31358;46.008;11.144;2023-06-22T14:15:54;35.00;88.00
45643;DHT22;31358;46.008;11.144;2023-06-22T14:18:20;34.60;87.90
45643;DHT22;31358;46.008;11.144;2023-06-22T14:20:48;34.50;88.30
45643;DHT22;31358;46.008;11.144;2023-06-22T14:23:14;34.20;88.80
45643;DHT22;31358;46.008;11.144;2023-06-22T14:25:40;34.20;89.20
45643;DHT22;31358;46.008;11.144;2023-06-22T14:28:06;34.10;88.70
45643;DHT22;31358;46.008;11.144;2023-06-22T14:30:31;34.00;89.10
45643;DHT22;31358;46.008;11.144;2023-06-22T14:32:57;34.00;88.90
45643;DHT22;31358;46.008;11.144;2023-06-22T14:35:23;34.20;90.10
45643;DHT22;31358;46.008;11.144;2023-06-22T14:37:50;34.10;90.20
45643;DHT22;31358;46.008;11.144;2023-06-22T14:40:15;34.10;89.90
45643;DHT22;31358;46.008;11.144;2023-06-22T14:42:41;34.20;90.20
45643;DHT22;31358;46.008;11.144;2023-06-22T14:45:07;34.70;90.30
45643;DHT22;31358;46.008;11.144;2023-06-22T14:47:33;34.80;89.50
45643;DHT22;31358;46.008;11.144;2023-06-22T14:49:59;34.70;90.20
45643;DHT22;31358;46.008;11.144;2023-06-22T14:52:26;34.50;89.10
45643;DHT22;31358;46.008;11.144;2023-06-22T14:54:52;34.10;89.20
45643;DHT22;31358;46.008;11.144;2023-06-22T14:57:19;33.80;89.40
45643;DHT22;31358;46.008;11.144;2023-06-22T14:59:46;33.90;89.10
45643;DHT22;31358;46.008;11.144;2023-06-22T15:02:12;34.00;89.70
45643;DHT22;31358;46.008;11.144;2023-06-22T15:04:38;34.10;90.00
45643;DHT22;31358;46.008;11.144;2023-06-22T15:07:04;34.00;89.70
45643;DHT22;31358;46.008;11.144;2023-06-22T15:09:30;33.70;89.50
45643;DHT22;31358;46.008;11.144;2023-06-22T15:11:55;33.80;90.50
45643;DHT22;31358;46.008;11.144;2023-06-22T15:14:21;33.80;90.30
45643;DHT22;31358;46.008;11.144;2023-06-22T15:16:47;33.60;90.20
45643;DHT22;31358;46.008;11.144;2023-06-22T15:19:12;33.60;90.40
45643;DHT22;31358;46.008;11.144;2023-06-22T15:21:38;33.60;89.90
45643;DHT22;31358;46.008;11.144;2023-06-22T15:24:04;33.60;89.80